createdAt,value
2023-01-21T00:01:30.898Z,-2.20
2023-01-21T00:03:03.984Z,-1.90
2023-01-21T00:04:38.142Z,-1.70
2023-01-21T00:06:11.670Z,-2.00
2023-01-21T00:07:46.033Z,-1.20
2023-01-21T00:09:19.152Z,-2.00
2023-01-21T00:10:52.215Z,-2.60
2023-01-21T00:12:25.260Z,-1.70
2023-01-21T00:13:59.886Z,-2.00
2023-01-21T00:15:33.194Z,-1.30
2023-01-21T00:17:06.260Z,-1.00
2023-01-21T00:18:39.405Z,-3.30
2023-01-21T00:20:13.551Z,-1.80
2023-01-21T00:21:46.763Z,-3.80
2023-01-21T00:23:21.169Z,-1.80
2023-01-21T00:24:54.134Z,-0.50
2023-01-21T00:26:27.074Z,-1.40
2023-01-21T00:28:00.899Z,-1.60
2023-01-21T00:29:33.894Z,-1.50
2023-01-21T00:31:09.056Z,-1.60
2023-01-21T00:32:42.159Z,-1.80
2023-01-21T00:34:14.259Z,-1.80
2023-01-21T00:35:47.248Z,-1.80
2023-01-21T00:37:20.266Z,-1.80
2023-01-21T00:38:54.809Z,-1.60
2023-01-21T00:40:27.907Z,-1.70
2023-01-21T00:42:00.919Z,-1.70
2023-01-21T00:43:34.409Z,-1.70
2023-01-21T00:45:09.031Z,-2.00
2023-01-21T00:46:42.280Z,-1.30
2023-01-21T00:48:15.327Z,-0.40
2023-01-21T00:49:48.263Z,-0.90
2023-01-21T00:51:21.493Z,-1.60
2023-01-21T00:52:55.080Z,-1.50
2023-01-21T00:54:31.313Z,-1.50
2023-01-21T00:56:06.342Z,-1.60
2023-01-21T00:57:39.430Z,-1.40
2023-01-21T00:59:12.624Z,-1.30
2023-01-21T01:00:44.819Z,-1.20
2023-01-21T01:02:18.016Z,-1.20
2023-01-21T01:03:51.471Z,-1.00
2023-01-21T01:05:23.535Z,-1.70
2023-01-21T01:06:56.443Z,-1.30
2023-01-21T01:08:28.487Z,-1.50
2023-01-21T01:10:02.835Z,-1.30
2023-01-21T01:11:35.787Z,-1.80
2023-01-21T01:13:08.863Z,-1.70
2023-01-21T01:16:16.437Z,-1.90
2023-01-21T01:17:49.489Z,-1.80
2023-01-21T01:19:22.686Z,-3.10
2023-01-21T01:20:54.569Z,-1.70
2023-01-21T01:22:27.467Z,-2.20
2023-01-21T01:24:03.130Z,-1.80
2023-01-21T01:25:37.986Z,-3.40
2023-01-21T01:27:11.061Z,-1.80
2023-01-21T01:28:44.207Z,-1.70
2023-01-21T01:31:50.009Z,-1.80
2023-01-21T01:33:22.487Z,-1.60
2023-01-21T01:36:28.747Z,-1.90
2023-01-21T01:39:40.717Z,-1.60
2023-01-21T01:41:17.901Z,-1.50
2023-01-21T01:42:50.875Z,-1.80
2023-01-21T01:44:55.279Z,-1.80
2023-01-21T01:46:30.886Z,-1.90
2023-01-21T01:48:06.397Z,-2.10
2023-01-21T01:49:39.588Z,-1.60
2023-01-21T01:51:15.102Z,-0.30
2023-01-21T01:52:48.708Z,-1.70
2023-01-21T01:54:24.398Z,-1.60
2023-01-21T01:55:57.912Z,-1.60
2023-01-21T01:57:35.478Z,-1.60
2023-01-21T01:59:07.913Z,-1.50
2023-01-21T02:00:41.176Z,-1.30
2023-01-21T02:02:17.162Z,-1.70
2023-01-21T02:03:56.873Z,-1.70
2023-01-21T02:05:29.974Z,-1.70
2023-01-21T02:07:04.063Z,-1.70
2023-01-21T02:08:37.324Z,-1.70
2023-01-21T02:10:15.492Z,0.00
2023-01-21T02:11:48.701Z,-1.60
2023-01-21T02:13:23.937Z,-1.60
2023-01-21T02:14:57.146Z,-1.20
2023-01-21T02:16:54.685Z,-1.60
2023-01-21T02:18:38.262Z,-1.60
2023-01-21T02:20:46.754Z,-0.40
2023-01-21T02:22:28.767Z,-1.00
2023-01-21T02:24:26.199Z,-2.50
2023-01-21T02:26:38.191Z,-1.80
2023-01-21T02:28:47.075Z,-2.00
2023-01-21T02:30:50.101Z,-1.30
2023-01-21T02:33:14.331Z,-1.20
2023-01-21T02:34:53.619Z,0.20
2023-01-21T02:36:38.010Z,-2.60
2023-01-21T02:38:21.546Z,-2.00
2023-01-21T02:40:15.361Z,-1.70
2023-01-21T02:42:00.698Z,-1.20
2023-01-21T02:43:42.381Z,-2.30
2023-01-21T02:45:25.098Z,-1.90
2023-01-21T02:47:02.373Z,-2.20
2023-01-21T02:48:42.030Z,-2.00
2023-01-21T02:50:19.672Z,-2.10
2023-01-21T02:51:52.636Z,-1.90
2023-01-21T02:53:27.528Z,-1.60
2023-01-21T02:55:02.444Z,-3.80
2023-01-21T02:56:35.377Z,-2.00
2023-01-21T02:58:10.837Z,-1.00
2023-01-21T02:59:46.711Z,-3.40
2023-01-21T03:01:27.764Z,-1.50
2023-01-21T03:03:23.900Z,-1.40
2023-01-21T03:05:10.073Z,-2.00
2023-01-21T03:06:51.114Z,-1.80
2023-01-21T03:08:30.658Z,-2.00
2023-01-21T03:10:13.189Z,-2.20
2023-01-21T03:11:54.007Z,-2.20
2023-01-21T03:13:53.983Z,-2.70
2023-01-21T03:15:47.393Z,-2.00
2023-01-21T03:17:28.788Z,-2.00
2023-01-21T03:19:07.032Z,-1.30
2023-01-21T03:20:45.545Z,-1.10
2023-01-21T03:22:22.928Z,-1.50
2023-01-21T03:23:58.925Z,-2.10
2023-01-21T03:25:34.322Z,-1.80
2023-01-21T03:27:10.014Z,-1.20
2023-01-21T03:28:47.354Z,-1.40
2023-01-21T03:30:23.191Z,-1.70
2023-01-21T03:31:59.845Z,-1.20
2023-01-21T03:33:36.405Z,-1.50
2023-01-21T03:35:11.516Z,-1.80
2023-01-21T03:36:52.518Z,-1.50
2023-01-21T03:38:31.460Z,-1.30
2023-01-21T03:40:15.010Z,-1.70
2023-01-21T03:41:48.880Z,-1.60
2023-01-21T03:43:22.315Z,-1.90
2023-01-21T03:44:55.168Z,-1.70
2023-01-21T03:46:35.810Z,-2.20
2023-01-21T03:48:19.391Z,-1.60
2023-01-21T03:49:58.693Z,-1.40
2023-01-21T03:51:37.253Z,-1.20
2023-01-21T03:53:10.943Z,-2.20
2023-01-21T03:54:43.884Z,-1.50
2023-01-21T03:56:16.784Z,-0.90
2023-01-21T03:57:49.710Z,-0.80
2023-01-21T03:59:21.671Z,-1.20
2023-01-21T04:00:54.817Z,-1.20
2023-01-21T04:02:26.998Z,-1.40
2023-01-21T04:04:00.230Z,-1.40
2023-01-21T04:05:33.221Z,-1.10
2023-01-21T04:07:06.262Z,-0.40
2023-01-21T04:08:40.595Z,-3.20
2023-01-21T04:10:13.514Z,-3.00
2023-01-21T04:11:46.429Z,-1.40
2023-01-21T04:13:18.432Z,-1.60
2023-01-21T04:14:51.343Z,-2.60
2023-01-21T04:17:57.924Z,-2.10
2023-01-21T04:19:29.886Z,-1.30
2023-01-21T04:22:36.025Z,-1.30
2023-01-21T04:24:10.513Z,-1.40
2023-01-21T04:25:43.552Z,-0.70
2023-01-21T04:27:16.436Z,-0.60
2023-01-21T04:28:48.328Z,-1.40
2023-01-21T04:30:21.343Z,-1.30
2023-01-21T04:31:54.603Z,-1.30
2023-01-21T04:33:27.668Z,-1.30
2023-01-21T04:35:00.713Z,-1.30
2023-01-21T04:36:33.655Z,-1.50
2023-01-21T04:38:07.201Z,-1.50
2023-01-21T04:39:41.442Z,-1.30
2023-01-21T04:41:13.459Z,-1.40
2023-01-21T04:44:22.260Z,-1.40
2023-01-21T04:45:54.162Z,-1.40
2023-01-21T04:47:27.146Z,-1.40
2023-01-21T04:48:59.148Z,-1.40
2023-01-21T04:50:32.119Z,-1.50
2023-01-21T04:52:05.448Z,-1.50
2023-01-21T04:53:38.399Z,-1.50
2023-01-21T04:55:12.934Z,-0.80
2023-01-21T04:56:45.919Z,-1.40
2023-01-21T04:58:18.016Z,-1.50
2023-01-21T04:59:50.963Z,-1.40
2023-01-21T05:01:23.032Z,-1.40
2023-01-21T05:02:56.347Z,-1.40
2023-01-21T05:04:29.375Z,-1.40
2023-01-21T05:06:02.261Z,-1.40
2023-01-21T05:07:35.480Z,-1.40
2023-01-21T05:09:08.456Z,-1.30
2023-01-21T05:10:42.654Z,-1.20
2023-01-21T05:12:14.695Z,-1.40
2023-01-21T05:13:47.682Z,-1.10
2023-01-21T05:15:21.172Z,-1.20
2023-01-21T05:16:54.089Z,-1.30
2023-01-21T05:18:27.030Z,-1.30
2023-01-21T05:19:59.969Z,-2.20
2023-01-21T05:21:31.961Z,-3.40
2023-01-21T05:23:04.916Z,-1.40
2023-01-21T05:24:37.886Z,-1.20
2023-01-21T05:26:11.202Z,-1.10
2023-01-21T05:27:44.089Z,-1.20
2023-01-21T05:29:17.494Z,-1.30
2023-01-21T05:30:49.330Z,-1.20
2023-01-21T05:32:22.324Z,-2.20
2023-01-21T05:35:28.468Z,-1.20
2023-01-21T05:37:01.616Z,-1.20
2023-01-21T05:38:34.524Z,-1.30
2023-01-21T05:40:07.583Z,-1.20
2023-01-21T05:41:41.882Z,-1.30
2023-01-21T05:44:47.947Z,-1.90
2023-01-21T05:46:20.924Z,-1.40
2023-01-21T05:47:53.818Z,-1.30
2023-01-21T05:49:26.796Z,-1.30
2023-01-21T05:51:00.058Z,-2.10
2023-01-21T05:52:33.128Z,-1.30
2023-01-21T05:54:06.316Z,-1.40
2023-01-21T05:55:39.372Z,-1.80
2023-01-21T05:57:13.755Z,-1.30
2023-01-21T05:58:46.755Z,-1.40
2023-01-21T06:00:20.487Z,-1.00
2023-01-21T06:01:53.429Z,-1.20
2023-01-21T06:03:26.935Z,0.00
2023-01-21T06:04:59.898Z,-1.30
2023-01-21T06:06:32.787Z,-2.50
2023-01-21T06:08:05.973Z,-1.20
2023-01-21T06:09:38.876Z,-1.90
2023-01-21T06:11:11.840Z,-1.10
2023-01-21T06:12:46.142Z,-1.10
2023-01-21T06:14:19.042Z,-1.00
2023-01-21T06:15:54.955Z,-1.00
2023-01-21T06:17:28.091Z,-1.30
2023-01-21T06:19:01.036Z,-0.80
2023-01-21T06:20:34.034Z,-1.00
2023-01-21T06:22:07.091Z,-1.00
2023-01-21T06:23:40.094Z,-1.00
2023-01-21T06:25:13.327Z,-1.00
2023-01-21T06:26:46.319Z,-1.10
2023-01-21T06:28:20.818Z,-1.30
2023-01-21T06:29:53.770Z,-0.90
2023-01-21T06:31:27.338Z,-1.40
2023-01-21T06:33:00.593Z,-1.00
2023-01-21T06:34:33.621Z,-1.10
2023-01-21T06:36:07.182Z,-1.00
2023-01-21T06:37:40.133Z,-2.90
2023-01-21T06:40:46.345Z,-1.10
2023-01-21T06:43:53.726Z,-1.20
2023-01-21T06:45:26.825Z,-2.30
2023-01-21T06:47:01.057Z,-1.50
2023-01-21T06:48:34.333Z,-2.00
2023-01-21T06:50:08.052Z,0.20
2023-01-21T06:51:39.963Z,-1.30
2023-01-21T06:53:13.193Z,-1.20
2023-01-21T06:54:46.246Z,-1.20
2023-01-21T06:56:19.360Z,-1.20
2023-01-21T06:57:52.213Z,-1.00
2023-01-21T06:59:26.425Z,-2.50
2023-01-21T07:00:59.355Z,-0.50
2023-01-21T07:02:32.414Z,-1.40
2023-01-21T07:04:05.337Z,-1.00
2023-01-21T07:05:38.387Z,-1.70
2023-01-21T07:07:11.412Z,-0.10
2023-01-21T07:10:18.738Z,-0.80
2023-01-21T07:11:51.923Z,-0.70
2023-01-21T07:13:24.872Z,-0.80
2023-01-21T07:14:59.267Z,-2.70
2023-01-21T07:16:32.168Z,-2.10
2023-01-21T07:18:05.219Z,-1.50
2023-01-21T07:19:38.152Z,-0.60
2023-01-21T07:21:11.101Z,-0.80
2023-01-21T12:32:43.777Z,0.80
2023-01-21T12:34:28.580Z,0.80
2023-01-21T12:36:07.662Z,0.80
2023-01-21T12:37:46.927Z,0.00
2023-01-21T12:39:22.927Z,0.90
2023-01-21T12:41:01.111Z,0.80
2023-01-21T12:42:40.357Z,0.90
2023-01-21T12:44:24.767Z,1.20
2023-01-21T12:46:00.307Z,1.40
2023-01-21T12:47:40.410Z,1.40
2023-01-21T12:49:17.523Z,0.80
2023-01-21T12:50:57.569Z,1.00
2023-01-21T12:52:36.381Z,1.00
2023-01-21T12:54:16.273Z,-0.20
2023-01-21T12:56:10.449Z,1.30
2023-01-21T12:57:48.125Z,1.00
2023-01-21T12:59:26.370Z,1.00
2023-01-21T13:01:05.057Z,1.00
2023-01-21T13:02:48.541Z,1.40
2023-01-21T13:04:43.577Z,0.90
2023-01-21T13:06:24.047Z,0.90
2023-01-21T13:08:18.243Z,1.00
2023-01-21T13:09:59.281Z,0.80
2023-01-21T13:11:37.165Z,-0.60
2023-01-21T13:13:18.299Z,1.20
2023-01-21T13:14:58.082Z,0.80
2023-01-21T13:16:32.515Z,0.80
2023-01-21T13:18:11.787Z,0.80
2023-01-21T13:19:44.779Z,0.80
2023-01-21T13:21:30.349Z,0.80
2023-01-21T13:23:07.913Z,1.00
2023-01-21T13:25:00.473Z,0.00
2023-01-21T13:26:40.552Z,0.90
2023-01-21T13:28:22.148Z,0.80
2023-01-21T13:30:03.371Z,0.80
2023-01-21T13:31:44.251Z,0.80
2023-01-21T13:33:25.969Z,1.40
2023-01-21T13:35:12.138Z,0.80
2023-01-21T13:37:02.842Z,0.80
2023-01-21T13:38:43.138Z,-0.60
2023-01-21T13:40:31.335Z,0.90
2023-01-21T13:42:26.197Z,1.30
2023-01-21T13:44:29.671Z,0.70
2023-01-21T13:46:17.782Z,0.60
2023-01-21T13:48:14.915Z,-0.30
2023-01-21T13:50:02.446Z,0.60
2023-01-21T13:51:46.703Z,0.70
2023-01-21T13:53:37.533Z,0.60
2023-01-21T13:55:25.224Z,-0.20
2023-01-21T13:57:16.989Z,0.30
2023-01-21T13:58:55.724Z,0.50
2023-01-21T14:00:32.557Z,-0.80
2023-01-21T14:02:10.500Z,2.00
2023-01-21T14:03:48.407Z,0.70
2023-01-21T14:05:27.498Z,0.70
2023-01-21T14:07:05.123Z,0.60
2023-01-21T14:08:43.420Z,1.60
2023-01-21T14:10:32.484Z,0.60
2023-01-21T14:12:11.877Z,0.60
2023-01-21T14:14:27.537Z,-1.00
2023-01-21T14:16:20.608Z,0.50
2023-01-21T14:18:22.540Z,0.60
2023-01-21T14:20:13.963Z,0.30
2023-01-21T14:22:19.655Z,0.50
2023-01-21T14:24:06.586Z,0.50
2023-01-21T14:25:53.573Z,0.50
2023-01-21T14:27:34.647Z,0.50
2023-01-21T14:29:15.446Z,0.50
2023-01-21T14:30:53.130Z,-0.10
2023-01-21T14:32:32.504Z,0.10
2023-01-21T14:34:14.358Z,0.60
2023-01-21T14:35:54.620Z,0.20
2023-01-21T14:37:34.852Z,0.40
2023-01-21T14:39:23.433Z,0.70
2023-01-21T14:41:06.609Z,1.10
2023-01-21T14:42:45.202Z,0.40
2023-01-21T14:44:36.819Z,0.50
2023-01-21T14:46:34.659Z,0.80
2023-01-21T14:48:31.495Z,0.20
2023-01-21T14:51:44.084Z,0.20
2023-01-21T14:53:25.543Z,1.40
2023-01-21T14:55:00.756Z,0.10
2023-01-21T14:56:34.405Z,0.20
2023-01-21T14:58:07.450Z,0.30
2023-01-21T14:59:43.635Z,0.10
2023-01-21T15:01:27.990Z,0.30
2023-01-21T15:03:15.198Z,0.20
2023-01-21T15:04:55.451Z,0.30
2023-01-21T15:06:28.445Z,0.30
2023-01-21T15:08:08.506Z,-1.80
2023-01-21T15:09:45.078Z,0.80
2023-01-21T15:11:22.933Z,0.20
2023-01-21T15:12:59.170Z,-0.10
2023-01-21T15:14:35.316Z,0.20
2023-01-21T15:16:15.772Z,1.10
2023-01-21T15:18:22.676Z,0.20
2023-01-21T15:19:59.019Z,0.10
2023-01-21T15:21:36.623Z,0.20
2023-01-21T15:23:21.093Z,0.20
2023-01-21T15:25:21.734Z,0.20
2023-01-21T15:27:23.592Z,0.30
2023-01-21T15:28:56.646Z,0.20
2023-01-21T15:30:47.745Z,0.30
2023-01-21T15:32:30.226Z,0.20
2023-01-21T15:34:08.031Z,0.10
2023-01-21T15:35:42.181Z,1.40
2023-01-21T15:37:20.864Z,0.60
2023-01-21T15:38:58.741Z,0.20
2023-01-21T15:40:40.176Z,0.30
2023-01-21T15:42:23.190Z,0.30
2023-01-21T15:44:13.564Z,0.30
2023-01-21T15:45:52.838Z,0.30
2023-01-21T15:47:41.742Z,-0.10
2023-01-21T15:49:33.827Z,0.30
2023-01-21T15:51:18.500Z,1.40
2023-01-21T15:53:11.440Z,0.40
2023-01-21T15:54:51.474Z,0.30
2023-01-21T15:56:42.678Z,0.30
2023-01-21T15:58:24.889Z,0.20
2023-01-21T16:00:17.350Z,0.20
2023-01-21T16:02:13.555Z,0.30
2023-01-21T16:04:03.846Z,0.20
2023-01-21T16:05:44.514Z,0.30
2023-01-21T16:07:25.211Z,0.20
2023-01-21T16:09:06.072Z,0.20
2023-01-21T16:10:47.879Z,1.40
2023-01-21T16:12:29.948Z,0.80
2023-01-21T16:14:13.819Z,0.30
2023-01-21T16:15:59.603Z,0.30
2023-01-21T16:17:49.046Z,0.20
2023-01-21T16:19:24.885Z,0.40
2023-01-21T16:21:00.239Z,0.10
2023-01-21T16:22:37.388Z,0.10
2023-01-21T16:24:14.506Z,0.10
2023-01-21T16:25:49.276Z,0.20
2023-01-21T16:27:25.428Z,0.10
2023-01-21T16:28:58.534Z,1.30
2023-01-21T16:30:32.801Z,0.10
2023-01-21T16:32:07.338Z,0.10
2023-01-21T16:33:40.258Z,0.10
2023-01-21T16:35:13.167Z,-0.20
2023-01-21T16:36:46.206Z,0.10
2023-01-21T16:38:21.441Z,0.10
2023-01-21T16:39:56.837Z,0.50
2023-01-21T16:41:29.889Z,0.10
2023-01-21T16:43:16.288Z,0.10
2023-01-21T16:44:49.523Z,2.30
2023-01-21T16:46:25.899Z,0.10
2023-01-21T16:48:00.734Z,1.50
2023-01-21T16:49:34.951Z,0.60
2023-01-21T16:51:14.207Z,0.10
2023-01-21T16:52:47.448Z,0.60
2023-01-21T16:54:31.002Z,0.10
2023-01-21T16:56:04.054Z,0.40
2023-01-21T16:57:37.574Z,-0.10
2023-01-21T16:59:19.622Z,0.10
2023-01-21T17:01:01.391Z,0.40
2023-01-21T17:02:35.159Z,0.40
2023-01-21T17:04:10.792Z,0.20
2023-01-21T17:05:43.728Z,0.00
2023-01-21T17:07:20.067Z,-0.20
2023-01-21T17:08:57.395Z,-2.00
2023-01-21T17:10:35.202Z,0.10
2023-01-21T17:12:11.283Z,1.20
2023-01-21T17:13:45.687Z,0.40
2023-01-21T17:15:26.591Z,-1.20
2023-01-21T17:17:03.268Z,0.30
2023-01-21T17:18:39.362Z,1.10
2023-01-21T17:20:37.803Z,0.00
2023-01-21T17:22:16.828Z,0.10
2023-01-21T17:23:53.764Z,0.10
2023-01-21T17:25:27.682Z,0.10
2023-01-21T17:27:04.886Z,0.10
2023-01-21T17:28:46.188Z,0.30
2023-01-21T17:30:27.287Z,0.10
2023-01-21T17:32:01.792Z,0.10
2023-01-21T17:33:34.878Z,0.20
2023-01-21T17:35:12.741Z,0.40
2023-01-21T17:36:48.699Z,0.10
2023-01-21T17:38:30.347Z,-1.50
2023-01-21T17:40:03.461Z,0.20
2023-01-21T17:41:38.333Z,0.10
2023-01-21T17:43:19.872Z,0.10
2023-01-21T17:44:55.344Z,0.00
2023-01-21T17:46:28.934Z,0.60
2023-01-21T17:48:10.303Z,0.20
2023-01-21T17:49:46.793Z,0.20
2023-01-21T17:51:22.524Z,0.30
2023-01-21T17:53:01.491Z,1.30
2023-01-21T17:54:34.432Z,0.10
2023-01-21T17:56:09.227Z,0.60
2023-01-21T17:57:42.141Z,0.30
2023-01-21T17:59:31.540Z,1.10
2023-01-21T18:01:05.638Z,-1.60
2023-01-21T18:02:38.616Z,1.40
2023-01-21T18:04:11.594Z,0.50
2023-01-21T18:05:44.687Z,1.20
2023-01-21T18:07:23.574Z,0.10
2023-01-21T18:08:58.443Z,1.20
2023-01-21T18:10:31.872Z,0.00
2023-01-21T18:12:04.867Z,0.00
2023-01-21T18:13:38.367Z,0.50
2023-01-21T18:15:13.398Z,0.00
2023-01-21T18:16:47.073Z,-0.10
2023-01-21T18:18:22.921Z,1.80
2023-01-21T18:19:57.866Z,-0.70
2023-01-21T18:21:30.991Z,1.40
2023-01-21T18:23:03.917Z,-0.30
2023-01-21T18:24:38.271Z,0.00
2023-01-21T18:26:18.745Z,0.00
2023-01-21T18:27:54.781Z,-0.20
2023-01-21T18:29:30.395Z,-0.80
2023-01-21T18:31:03.952Z,0.00
2023-01-21T18:32:37.917Z,0.10
2023-01-21T18:34:11.841Z,-0.10
2023-01-21T18:35:47.529Z,0.50
2023-01-21T18:37:21.459Z,-1.00
2023-01-21T18:40:29.098Z,0.00
2023-01-21T18:42:02.048Z,-0.10
2023-01-21T18:43:35.071Z,0.00
2023-01-21T18:45:13.486Z,0.00
2023-01-21T18:46:46.548Z,-0.10
2023-01-21T18:48:23.860Z,-0.10
2023-01-21T18:49:57.826Z,0.10
2023-01-21T18:51:32.204Z,-0.30
2023-01-21T18:54:41.364Z,-0.20
2023-01-21T18:56:20.000Z,-0.80
2023-01-21T18:57:53.311Z,0.40
2023-01-21T18:59:27.741Z,-0.10
2023-01-21T19:01:10.863Z,-0.10
2023-01-21T19:02:50.826Z,0.00
2023-01-21T19:05:57.002Z,-0.10
2023-01-21T19:07:30.119Z,-0.10
2023-01-21T19:09:03.097Z,-0.20
2023-01-21T19:10:36.013Z,-0.70
2023-01-21T19:12:11.950Z,-0.10
2023-01-21T19:13:44.956Z,-0.20
2023-01-21T19:15:20.036Z,-0.10
2023-01-21T19:16:52.949Z,0.00
2023-01-21T19:18:27.227Z,0.10
2023-01-21T19:20:00.318Z,-0.10
2023-01-21T19:21:33.323Z,-1.00
2023-01-21T19:23:10.676Z,-0.10
2023-01-21T19:24:44.981Z,-0.10
2023-01-21T19:26:18.294Z,0.50
2023-01-21T19:27:53.167Z,-0.10
2023-01-21T19:29:28.357Z,0.10
2023-01-21T19:31:01.368Z,-0.50
2023-01-21T19:32:34.459Z,-1.10
2023-01-21T19:35:42.554Z,-0.10
2023-01-21T19:37:16.726Z,1.00
2023-01-21T19:38:54.881Z,0.00
2023-01-21T19:40:30.030Z,1.00
2023-01-21T19:42:08.396Z,-2.00
2023-01-21T19:43:46.256Z,0.00
2023-01-21T19:45:20.021Z,0.40
2023-01-21T19:46:54.535Z,0.70
2023-01-21T19:48:29.159Z,-0.40
2023-01-21T19:50:03.823Z,0.00
2023-01-21T19:51:36.796Z,0.00
2023-01-21T19:53:15.979Z,0.10
2023-01-21T19:54:49.156Z,0.10
2023-01-21T19:56:24.541Z,0.10
2023-01-21T19:58:00.818Z,0.10
2023-01-21T19:59:36.467Z,0.20
2023-01-21T20:01:09.575Z,-1.80
2023-01-21T20:02:54.862Z,0.60
2023-01-21T20:04:27.816Z,0.30
2023-01-21T20:06:03.067Z,0.00
2023-01-21T20:07:36.092Z,-0.10
2023-01-21T20:09:14.597Z,0.50
2023-01-21T20:10:47.667Z,0.00
2023-01-21T20:12:20.534Z,0.30
2023-01-21T20:13:53.457Z,-0.10
2023-01-21T20:15:31.825Z,0.70
2023-01-21T20:17:04.853Z,0.10
2023-01-21T20:18:37.890Z,0.10
2023-01-21T20:20:19.226Z,0.80
2023-01-21T20:22:02.178Z,0.10
2023-01-21T20:23:36.335Z,0.10
2023-01-21T20:25:10.268Z,0.10
2023-01-21T20:26:44.279Z,-1.40
2023-01-21T20:28:19.985Z,0.10
2023-01-21T20:30:02.595Z,-1.30
2023-01-21T20:31:47.662Z,-0.50
2023-01-21T20:33:22.618Z,0.70
2023-01-21T20:34:55.552Z,1.00
2023-01-21T20:36:28.700Z,0.30
2023-01-21T20:38:01.719Z,0.40
2023-01-21T20:39:34.923Z,0.20
2023-01-21T20:41:07.929Z,0.30
2023-01-21T20:42:40.872Z,0.20
2023-01-21T20:44:13.821Z,1.20
2023-01-21T20:45:48.826Z,0.10
2023-01-21T20:47:32.697Z,1.40
2023-01-21T20:49:12.426Z,-1.80
2023-01-21T20:50:45.551Z,0.60
2023-01-21T20:52:18.720Z,0.30
2023-01-21T20:53:51.726Z,0.60
2023-01-21T20:55:27.343Z,-0.10
2023-01-21T20:57:00.255Z,0.20
2023-01-21T20:58:33.714Z,0.20
2023-01-21T21:00:07.329Z,0.20
2023-01-21T21:01:40.322Z,0.40
2023-01-21T21:03:16.586Z,-0.10
2023-01-21T21:04:49.590Z,0.10
2023-01-21T21:06:24.106Z,0.40
2023-01-21T21:07:57.211Z,1.30
2023-01-21T21:09:36.005Z,0.10
2023-01-21T21:11:09.220Z,-1.10
2023-01-21T21:12:42.148Z,0.10
2023-01-21T21:14:17.308Z,1.00
2023-01-21T21:15:51.729Z,0.50
2023-01-21T21:17:24.711Z,0.40
2023-01-21T21:18:59.490Z,0.20
2023-01-21T21:20:34.312Z,0.20
2023-01-21T21:22:07.329Z,0.40
2023-01-21T21:23:40.307Z,2.10
2023-01-21T21:25:17.765Z,-0.10
2023-01-21T21:26:50.907Z,0.80
2023-01-21T21:28:23.984Z,0.50
2023-01-21T21:29:59.224Z,0.60
2023-01-21T21:31:32.840Z,0.40
2023-01-21T21:33:07.602Z,0.20
2023-01-21T21:34:42.817Z,0.60
2023-01-21T21:36:16.645Z,0.90
2023-01-21T21:37:49.910Z,-1.40
2023-01-21T21:39:22.935Z,0.30
2023-01-21T21:40:57.676Z,1.50
2023-01-21T21:44:32.229Z,-0.20
2023-01-21T21:46:26.477Z,-0.40
2023-01-21T21:48:17.359Z,1.40
2023-01-21T21:49:51.667Z,0.40
2023-01-21T21:52:58.328Z,1.60
2023-01-21T21:54:31.347Z,1.40
2023-01-21T21:56:05.768Z,0.30
2023-01-21T21:57:38.691Z,0.20
2023-01-21T21:59:12.265Z,0.90
2023-01-21T22:00:45.227Z,0.30
2023-01-21T22:03:51.579Z,0.20
2023-01-21T22:05:25.849Z,0.10
2023-01-21T22:06:58.870Z,-0.30
2023-01-21T22:08:32.678Z,0.30
2023-01-21T22:10:06.797Z,0.70
2023-01-21T22:11:39.785Z,0.20
2023-01-21T22:16:21.500Z,0.80
2023-01-21T22:17:54.535Z,0.30
2023-01-21T22:19:27.557Z,0.80
2023-01-21T22:21:02.830Z,0.20
2023-01-21T22:22:35.918Z,1.00
2023-01-21T22:24:09.115Z,-0.10
2023-01-21T22:25:42.143Z,-0.10
2023-01-21T22:27:15.942Z,-0.40
2023-01-21T22:30:25.006Z,1.40
2023-01-21T22:31:58.290Z,0.30
2023-01-21T22:33:30.541Z,0.30
2023-01-21T22:35:03.573Z,0.30
2023-01-21T22:36:37.944Z,0.30
2023-01-21T22:38:10.843Z,1.50
2023-01-21T22:41:19.695Z,1.50
2023-01-21T22:42:52.782Z,0.40
2023-01-21T22:44:25.824Z,0.40
2023-01-21T22:46:00.383Z,0.50
2023-01-21T22:49:07.922Z,1.40
2023-01-21T22:50:41.598Z,0.70
2023-01-21T22:52:16.135Z,0.90
2023-01-21T22:53:49.832Z,0.40
2023-01-21T22:55:22.858Z,0.40
2023-01-21T22:56:55.837Z,0.40
2023-01-21T22:58:29.459Z,0.60
2023-01-21T23:00:02.752Z,0.50
2023-01-21T23:01:36.478Z,0.50
2023-01-21T23:03:12.071Z,1.20
2023-01-21T23:04:45.720Z,0.50
2023-01-21T23:06:18.846Z,0.40
2023-01-21T23:07:53.906Z,0.40
2023-01-21T23:09:27.071Z,0.90
2023-01-21T23:11:07.943Z,0.40
2023-01-21T23:12:40.897Z,0.40
2023-01-21T23:14:13.898Z,0.50
2023-01-21T23:15:48.279Z,0.40
2023-01-21T23:17:21.347Z,0.40
2023-01-21T23:18:54.297Z,-0.50
2023-01-21T23:20:28.922Z,0.60
2023-01-21T23:22:02.126Z,1.50
2023-01-21T23:23:37.852Z,1.10
2023-01-21T23:25:12.511Z,0.50
2023-01-21T23:26:45.524Z,0.60
2023-01-21T23:28:17.715Z,0.50
2023-01-21T23:29:50.763Z,0.80
2023-01-21T23:31:24.354Z,-1.10
2023-01-21T23:32:59.870Z,0.50
2023-01-21T23:34:32.956Z,1.60
2023-01-21T23:36:09.299Z,0.60
2023-01-21T23:37:42.316Z,0.30
2023-01-21T23:39:16.634Z,0.50
2023-01-21T23:40:49.597Z,0.50
2023-01-21T23:42:23.637Z,0.50
2023-01-21T23:43:59.629Z,0.50
2023-01-21T23:45:32.609Z,0.50
2023-01-21T23:47:05.733Z,0.50
2023-01-21T23:48:38.755Z,0.60
2023-01-21T23:50:13.809Z,0.50
2023-01-21T23:51:46.991Z,0.50
2023-01-21T23:53:18.980Z,-0.10
2023-01-21T23:54:53.283Z,0.50
2023-01-21T23:56:27.165Z,0.40
2023-01-21T23:58:00.162Z,0.40
2023-01-21T23:59:33.181Z,0.50
